sensor_id;sensor_type;location;lat;lon;timestamp;P1;durP1;ratioP1;P2;durP2;ratioP2
38725;SDS011;24474;48.906;8.808;2023-12-29T00:00:47;2.25;;;1.67;;
38725;SDS011;24474;48.906;8.808;2023-12-29T00:03:13;3.53;;;1.85;;
38725;SDS011;24474;48.906;8.808;2023-12-29T00:05:38;3.25;;;2.03;;
38725;SDS011;24474;48.906;8.808;2023-12-29T00:08:04;3.25;;;1.88;;
38725;SDS011;24474;48.906;8.808;2023-12-29T00:10:30;3.80;;;1.80;;
38725;SDS011;24474;48.906;8.808;2023-12-29T00:12:55;3.22;;;1.70;;
38725;SDS011;24474;48.906;8.808;2023-12-29T00:15:24;3.72;;;1.90;;
38725;SDS011;24474;48.906;8.808;2023-12-29T00:17:50;2.97;;;2.08;;
38725;SDS011;24474;48.906;8.808;2023-12-29T00:20:17;3.70;;;2.10;;
38725;SDS011;24474;48.906;8.808;2023-12-29T00:22:43;2.72;;;1.90;;
38725;SDS011;24474;48.906;8.808;2023-12-29T00:25:09;2.40;;;1.85;;
38725;SDS011;24474;48.906;8.808;2023-12-29T00:27:35;1.90;;;1.55;;
38725;SDS011;24474;48.906;8.808;2023-12-29T00:30:01;1.80;;;1.50;;
38725;SDS011;24474;48.906;8.808;2023-12-29T00:32:28;3.88;;;1.70;;
38725;SDS011;24474;48.906;8.808;2023-12-29T00:34:53;2.72;;;1.80;;
38725;SDS011;24474;48.906;8.808;2023-12-29T00:37:19;3.17;;;2.03;;
38725;SDS011;24474;48.906;8.808;2023-12-29T00:39:44;3.30;;;1.77;;
38725;SDS011;24474;48.906;8.808;2023-12-29T00:42:10;3.10;;;2.08;;
38725;SDS011;24474;48.906;8.808;2023-12-29T00:44:35;3.25;;;1.90;;
38725;SDS011;24474;48.906;8.808;2023-12-29T00:47:01;2.65;;;1.90;;
38725;SDS011;24474;48.906;8.808;2023-12-29T00:49:27;3.03;;;1.98;;
38725;SDS011;24474;48.906;8.808;2023-12-29T00:51:53;4.10;;;2.15;;
38725;SDS011;24474;48.906;8.808;2023-12-29T00:54:18;2.72;;;1.88;;
38725;SDS011;24474;48.906;8.808;2023-12-29T00:56:50;3.15;;;1.85;;
38725;SDS011;24474;48.906;8.808;2023-12-29T00:59:17;2.88;;;1.88;;
38725;SDS011;24474;48.906;8.808;2023-12-29T01:01:44;2.92;;;2.20;;
38725;SDS011;24474;48.906;8.808;2023-12-29T01:04:10;3.08;;;2.15;;
38725;SDS011;24474;48.906;8.808;2023-12-29T01:06:36;4.75;;;2.10;;
38725;SDS011;24474;48.906;8.808;2023-12-29T01:09:02;2.63;;;2.10;;
38725;SDS011;24474;48.906;8.808;2023-12-29T01:11:28;3.15;;;2.15;;
38725;SDS011;24474;48.906;8.808;2023-12-29T01:13:53;5.22;;;2.20;;
38725;SDS011;24474;48.906;8.808;2023-12-29T01:16:19;4.47;;;2.50;;
38725;SDS011;24474;48.906;8.808;2023-12-29T01:18:45;2.58;;;2.00;;
38725;SDS011;24474;48.906;8.808;2023-12-29T01:21:11;4.25;;;2.50;;
38725;SDS011;24474;48.906;8.808;2023-12-29T01:23:36;3.45;;;2.22;;
38725;SDS011;24474;48.906;8.808;2023-12-29T01:26:02;6.40;;;2.50;;
38725;SDS011;24474;48.906;8.808;2023-12-29T01:28:28;4.28;;;2.60;;
38725;SDS011;24474;48.906;8.808;2023-12-29T01:30:53;4.65;;;2.85;;
38725;SDS011;24474;48.906;8.808;2023-12-29T01:33:19;3.35;;;2.20;;
38725;SDS011;24474;48.906;8.808;2023-12-29T01:35:46;3.80;;;2.40;;
38725;SDS011;24474;48.906;8.808;2023-12-29T01:38:12;3.45;;;2.30;;
38725;SDS011;24474;48.906;8.808;2023-12-29T01:40:47;3.58;;;2.20;;
38725;SDS011;24474;48.906;8.808;2023-12-29T01:43:12;3.90;;;2.33;;
38725;SDS011;24474;48.906;8.808;2023-12-29T01:45:38;3.63;;;2.28;;
38725;SDS011;24474;48.906;8.808;2023-12-29T01:48:04;2.58;;;2.10;;
38725;SDS011;24474;48.906;8.808;2023-12-29T01:50:30;3.47;;;2.42;;
38725;SDS011;24474;48.906;8.808;2023-12-29T01:52:57;3.70;;;2.40;;
38725;SDS011;24474;48.906;8.808;2023-12-29T01:55:24;3.70;;;2.17;;
38725;SDS011;24474;48.906;8.808;2023-12-29T01:57:51;3.85;;;2.30;;
38725;SDS011;24474;48.906;8.808;2023-12-29T02:00:17;3.20;;;2.15;;
38725;SDS011;24474;48.906;8.808;2023-12-29T02:02:43;2.83;;;1.98;;
38725;SDS011;24474;48.906;8.808;2023-12-29T02:05:14;3.63;;;2.20;;
38725;SDS011;24474;48.906;8.808;2023-12-29T02:07:42;4.25;;;2.25;;
38725;SDS011;24474;48.906;8.808;2023-12-29T02:10:08;3.65;;;2.35;;
38725;SDS011;24474;48.906;8.808;2023-12-29T02:12:35;3.65;;;1.92;;
38725;SDS011;24474;48.906;8.808;2023-12-29T02:15:04;3.95;;;2.50;;
38725;SDS011;24474;48.906;8.808;2023-12-29T02:17:31;2.90;;;2.00;;
38725;SDS011;24474;48.906;8.808;2023-12-29T02:20:10;4.03;;;2.00;;
38725;SDS011;24474;48.906;8.808;2023-12-29T02:22:36;2.63;;;2.00;;
38725;SDS011;24474;48.906;8.808;2023-12-29T02:25:02;3.35;;;2.10;;
38725;SDS011;24474;48.906;8.808;2023-12-29T02:32:41;4.90;;;2.22;;
38725;SDS011;24474;48.906;8.808;2023-12-29T02:35:10;4.10;;;2.30;;
38725;SDS011;24474;48.906;8.808;2023-12-29T02:37:48;6.05;;;2.80;;
38725;SDS011;24474;48.906;8.808;2023-12-29T02:40:14;2.83;;;2.15;;
38725;SDS011;24474;48.906;8.808;2023-12-29T02:42:44;3.45;;;1.95;;
38725;SDS011;24474;48.906;8.808;2023-12-29T02:45:16;3.05;;;1.90;;
38725;SDS011;24474;48.906;8.808;2023-12-29T02:47:43;3.03;;;1.80;;
38725;SDS011;24474;48.906;8.808;2023-12-29T02:50:09;4.50;;;1.90;;
38725;SDS011;24474;48.906;8.808;2023-12-29T02:52:35;3.42;;;2.00;;
38725;SDS011;24474;48.906;8.808;2023-12-29T02:55:01;3.72;;;2.20;;
38725;SDS011;24474;48.906;8.808;2023-12-29T02:57:28;4.22;;;2.35;;
38725;SDS011;24474;48.906;8.808;2023-12-29T02:59:53;3.83;;;2.20;;
38725;SDS011;24474;48.906;8.808;2023-12-29T03:02:19;4.05;;;2.13;;
38725;SDS011;24474;48.906;8.808;2023-12-29T03:04:45;3.30;;;2.40;;
38725;SDS011;24474;48.906;8.808;2023-12-29T03:07:10;3.20;;;2.15;;
38725;SDS011;24474;48.906;8.808;2023-12-29T03:09:36;3.58;;;1.95;;
38725;SDS011;24474;48.906;8.808;2023-12-29T03:12:02;3.47;;;2.22;;
38725;SDS011;24474;48.906;8.808;2023-12-29T03:14:28;4.38;;;2.20;;
38725;SDS011;24474;48.906;8.808;2023-12-29T03:16:54;4.75;;;2.05;;
38725;SDS011;24474;48.906;8.808;2023-12-29T03:19:20;3.80;;;2.25;;
38725;SDS011;24474;48.906;8.808;2023-12-29T03:21:46;3.63;;;2.40;;
38725;SDS011;24474;48.906;8.808;2023-12-29T03:24:11;4.18;;;2.50;;
38725;SDS011;24474;48.906;8.808;2023-12-29T03:26:37;4.82;;;2.30;;
38725;SDS011;24474;48.906;8.808;2023-12-29T03:29:02;2.58;;;2.15;;
38725;SDS011;24474;48.906;8.808;2023-12-29T03:31:28;3.55;;;2.40;;
38725;SDS011;24474;48.906;8.808;2023-12-29T03:33:54;4.47;;;2.28;;
38725;SDS011;24474;48.906;8.808;2023-12-29T03:36:19;3.38;;;2.30;;
38725;SDS011;24474;48.906;8.808;2023-12-29T03:38:45;3.55;;;2.50;;
38725;SDS011;24474;48.906;8.808;2023-12-29T03:41:10;4.90;;;2.38;;
38725;SDS011;24474;48.906;8.808;2023-12-29T03:43:36;4.00;;;2.38;;
38725;SDS011;24474;48.906;8.808;2023-12-29T03:46:02;3.30;;;2.20;;
38725;SDS011;24474;48.906;8.808;2023-12-29T03:48:28;3.08;;;2.33;;
38725;SDS011;24474;48.906;8.808;2023-12-29T03:50:53;4.45;;;2.40;;
38725;SDS011;24474;48.906;8.808;2023-12-29T03:53:19;3.80;;;2.63;;
38725;SDS011;24474;48.906;8.808;2023-12-29T03:55:44;4.53;;;2.72;;
38725;SDS011;24474;48.906;8.808;2023-12-29T03:58:10;5.30;;;2.75;;
38725;SDS011;24474;48.906;8.808;2023-12-29T04:00:36;3.97;;;2.70;;
38725;SDS011;24474;48.906;8.808;2023-12-29T04:03:02;4.45;;;2.53;;
38725;SDS011;24474;48.906;8.808;2023-12-29T04:05:28;3.75;;;2.58;;
38725;SDS011;24474;48.906;8.808;2023-12-29T04:07:53;3.80;;;2.63;;
38725;SDS011;24474;48.906;8.808;2023-12-29T04:10:19;5.50;;;2.50;;
38725;SDS011;24474;48.906;8.808;2023-12-29T04:12:48;6.32;;;2.53;;
38725;SDS011;24474;48.906;8.808;2023-12-29T04:15:14;4.30;;;2.75;;
38725;SDS011;24474;48.906;8.808;2023-12-29T04:17:40;4.80;;;3.33;;
38725;SDS011;24474;48.906;8.808;2023-12-29T04:20:06;6.18;;;3.17;;
38725;SDS011;24474;48.906;8.808;2023-12-29T04:22:33;4.25;;;2.80;;
38725;SDS011;24474;48.906;8.808;2023-12-29T04:24:59;4.88;;;2.53;;
38725;SDS011;24474;48.906;8.808;2023-12-29T04:27:25;4.35;;;2.90;;
38725;SDS011;24474;48.906;8.808;2023-12-29T04:29:50;4.32;;;2.70;;
38725;SDS011;24474;48.906;8.808;2023-12-29T04:32:16;3.67;;;2.70;;
38725;SDS011;24474;48.906;8.808;2023-12-29T04:34:42;4.78;;;2.70;;
38725;SDS011;24474;48.906;8.808;2023-12-29T04:37:07;5.22;;;2.90;;
38725;SDS011;24474;48.906;8.808;2023-12-29T04:39:33;3.97;;;2.20;;
38725;SDS011;24474;48.906;8.808;2023-12-29T04:41:59;2.92;;;2.20;;
38725;SDS011;24474;48.906;8.808;2023-12-29T04:44:24;4.00;;;2.70;;
38725;SDS011;24474;48.906;8.808;2023-12-29T04:46:50;3.97;;;2.42;;
38725;SDS011;24474;48.906;8.808;2023-12-29T04:49:16;4.32;;;2.20;;
38725;SDS011;24474;48.906;8.808;2023-12-29T04:51:41;3.83;;;2.13;;
38725;SDS011;24474;48.906;8.808;2023-12-29T04:54:07;3.63;;;2.30;;
38725;SDS011;24474;48.906;8.808;2023-12-29T04:56:32;4.15;;;2.40;;
38725;SDS011;24474;48.906;8.808;2023-12-29T04:58:58;3.22;;;2.30;;
38725;SDS011;24474;48.906;8.808;2023-12-29T05:01:25;3.05;;;2.00;;
38725;SDS011;24474;48.906;8.808;2023-12-29T05:03:51;3.70;;;2.20;;
38725;SDS011;24474;48.906;8.808;2023-12-29T05:06:16;2.63;;;2.00;;
38725;SDS011;24474;48.906;8.808;2023-12-29T05:08:42;2.72;;;1.83;;
38725;SDS011;24474;48.906;8.808;2023-12-29T05:11:07;3.00;;;1.80;;
38725;SDS011;24474;48.906;8.808;2023-12-29T05:13:33;4.75;;;2.50;;
38725;SDS011;24474;48.906;8.808;2023-12-29T05:15:59;9.20;;;7.10;;
38725;SDS011;24474;48.906;8.808;2023-12-29T05:18:24;6.82;;;3.58;;
38725;SDS011;24474;48.906;8.808;2023-12-29T05:20:52;3.30;;;2.35;;
38725;SDS011;24474;48.906;8.808;2023-12-29T05:23:18;4.60;;;2.60;;
38725;SDS011;24474;48.906;8.808;2023-12-29T05:25:44;3.70;;;2.60;;
38725;SDS011;24474;48.906;8.808;2023-12-29T05:28:09;5.20;;;3.00;;
38725;SDS011;24474;48.906;8.808;2023-12-29T05:30:35;5.10;;;3.08;;
38725;SDS011;24474;48.906;8.808;2023-12-29T05:33:00;4.45;;;2.35;;
38725;SDS011;24474;48.906;8.808;2023-12-29T05:35:29;4.38;;;2.47;;
38725;SDS011;24474;48.906;8.808;2023-12-29T05:37:55;3.28;;;2.63;;
38725;SDS011;24474;48.906;8.808;2023-12-29T05:40:20;4.00;;;2.80;;
38725;SDS011;24474;48.906;8.808;2023-12-29T05:42:46;4.30;;;2.50;;
38725;SDS011;24474;48.906;8.808;2023-12-29T05:45:12;4.10;;;2.22;;
38725;SDS011;24474;48.906;8.808;2023-12-29T05:47:37;2.47;;;2.00;;
38725;SDS011;24474;48.906;8.808;2023-12-29T05:50:03;2.38;;;2.10;;
38725;SDS011;24474;48.906;8.808;2023-12-29T05:52:29;3.17;;;2.03;;
38725;SDS011;24474;48.906;8.808;2023-12-29T05:54:54;3.40;;;1.85;;
38725;SDS011;24474;48.906;8.808;2023-12-29T05:57:20;3.10;;;2.00;;
38725;SDS011;24474;48.906;8.808;2023-12-29T05:59:46;3.00;;;2.10;;
38725;SDS011;24474;48.906;8.808;2023-12-29T06:02:11;2.65;;;1.85;;
38725;SDS011;24474;48.906;8.808;2023-12-29T06:04:37;3.22;;;1.90;;
38725;SDS011;24474;48.906;8.808;2023-12-29T06:07:03;2.40;;;1.70;;
38725;SDS011;24474;48.906;8.808;2023-12-29T06:09:28;1.95;;;1.45;;
38725;SDS011;24474;48.906;8.808;2023-12-29T06:11:54;1.83;;;1.55;;
38725;SDS011;24474;48.906;8.808;2023-12-29T06:14:20;4.68;;;1.92;;
38725;SDS011;24474;48.906;8.808;2023-12-29T06:16:45;2.30;;;1.75;;
38725;SDS011;24474;48.906;8.808;2023-12-29T06:19:11;2.80;;;1.70;;
38725;SDS011;24474;48.906;8.808;2023-12-29T06:21:40;1.60;;;1.40;;
38725;SDS011;24474;48.906;8.808;2023-12-29T06:24:07;2.05;;;1.52;;
38725;SDS011;24474;48.906;8.808;2023-12-29T06:26:33;2.22;;;1.50;;
38725;SDS011;24474;48.906;8.808;2023-12-29T06:28:59;3.50;;;1.98;;
38725;SDS011;24474;48.906;8.808;2023-12-29T06:31:24;1.80;;;1.63;;
38725;SDS011;24474;48.906;8.808;2023-12-29T06:33:50;7.50;;;4.47;;
38725;SDS011;24474;48.906;8.808;2023-12-29T06:36:16;4.57;;;1.90;;
38725;SDS011;24474;48.906;8.808;2023-12-29T06:38:42;2.25;;;1.52;;
38725;SDS011;24474;48.906;8.808;2023-12-29T06:41:16;2.17;;;1.70;;
38725;SDS011;24474;48.906;8.808;2023-12-29T06:43:41;1.88;;;1.70;;
38725;SDS011;24474;48.906;8.808;2023-12-29T06:46:07;2.20;;;1.85;;
38725;SDS011;24474;48.906;8.808;2023-12-29T06:48:34;2.08;;;1.73;;
38725;SDS011;24474;48.906;8.808;2023-12-29T06:50:59;2.00;;;1.52;;
38725;SDS011;24474;48.906;8.808;2023-12-29T06:53:25;2.97;;;1.45;;
38725;SDS011;24474;48.906;8.808;2023-12-29T06:55:50;1.52;;;1.20;;
38725;SDS011;24474;48.906;8.808;2023-12-29T06:58:16;1.65;;;1.30;;
38725;SDS011;24474;48.906;8.808;2023-12-29T07:00:41;2.08;;;1.40;;
38725;SDS011;24474;48.906;8.808;2023-12-29T07:03:07;2.08;;;1.25;;
38725;SDS011;24474;48.906;8.808;2023-12-29T07:05:40;2.85;;;1.50;;
38725;SDS011;24474;48.906;8.808;2023-12-29T07:08:06;3.35;;;1.70;;
38725;SDS011;24474;48.906;8.808;2023-12-29T07:10:31;3.05;;;1.60;;
38725;SDS011;24474;48.906;8.808;2023-12-29T07:12:57;3.42;;;1.95;;
38725;SDS011;24474;48.906;8.808;2023-12-29T07:15:22;3.33;;;1.85;;
38725;SDS011;24474;48.906;8.808;2023-12-29T07:17:48;2.33;;;1.80;;
38725;SDS011;24474;48.906;8.808;2023-12-29T07:20:14;3.10;;;2.08;;
38725;SDS011;24474;48.906;8.808;2023-12-29T07:22:40;3.67;;;2.40;;
38725;SDS011;24474;48.906;8.808;2023-12-29T07:25:05;2.53;;;2.00;;
38725;SDS011;24474;48.906;8.808;2023-12-29T07:27:31;2.72;;;2.08;;
38725;SDS011;24474;48.906;8.808;2023-12-29T07:29:57;3.67;;;2.17;;
38725;SDS011;24474;48.906;8.808;2023-12-29T07:32:23;3.60;;;2.40;;
38725;SDS011;24474;48.906;8.808;2023-12-29T07:34:50;3.00;;;2.13;;
38725;SDS011;24474;48.906;8.808;2023-12-29T07:37:24;2.45;;;2.00;;
38725;SDS011;24474;48.906;8.808;2023-12-29T07:39:51;2.40;;;2.00;;
38725;SDS011;24474;48.906;8.808;2023-12-29T07:42:18;2.38;;;1.90;;
38725;SDS011;24474;48.906;8.808;2023-12-29T07:44:44;3.47;;;1.95;;
38725;SDS011;24474;48.906;8.808;2023-12-29T07:47:10;3.75;;;2.05;;
38725;SDS011;24474;48.906;8.808;2023-12-29T07:49:37;3.63;;;2.00;;
38725;SDS011;24474;48.906;8.808;2023-12-29T07:52:02;2.67;;;2.10;;
38725;SDS011;24474;48.906;8.808;2023-12-29T07:54:28;3.22;;;2.03;;
38725;SDS011;24474;48.906;8.808;2023-12-29T07:56:54;4.00;;;2.65;;
38725;SDS011;24474;48.906;8.808;2023-12-29T07:59:19;5.35;;;2.85;;
38725;SDS011;24474;48.906;8.808;2023-12-29T08:01:45;7.80;;;4.20;;
38725;SDS011;24474;48.906;8.808;2023-12-29T08:04:11;4.10;;;2.67;;
38725;SDS011;24474;48.906;8.808;2023-12-29T08:06:37;6.63;;;3.80;;
38725;SDS011;24474;48.906;8.808;2023-12-29T08:09:05;6.35;;;3.45;;
38725;SDS011;24474;48.906;8.808;2023-12-29T08:11:33;5.80;;;2.53;;
38725;SDS011;24474;48.906;8.808;2023-12-29T08:14:00;3.78;;;2.45;;
38725;SDS011;24474;48.906;8.808;2023-12-29T08:16:26;2.80;;;2.17;;
38725;SDS011;24474;48.906;8.808;2023-12-29T08:18:52;3.90;;;1.75;;
38725;SDS011;24474;48.906;8.808;2023-12-29T08:21:19;2.92;;;2.20;;
38725;SDS011;24474;48.906;8.808;2023-12-29T08:23:45;3.38;;;1.92;;
38725;SDS011;24474;48.906;8.808;2023-12-29T08:26:12;2.40;;;1.70;;
38725;SDS011;24474;48.906;8.808;2023-12-29T08:28:37;2.67;;;1.73;;
38725;SDS011;24474;48.906;8.808;2023-12-29T08:31:07;4.10;;;1.65;;
38725;SDS011;24474;48.906;8.808;2023-12-29T08:33:33;3.03;;;1.83;;
38725;SDS011;24474;48.906;8.808;2023-12-29T08:36:04;2.35;;;1.63;;
38725;SDS011;24474;48.906;8.808;2023-12-29T08:38:31;2.53;;;1.60;;
38725;SDS011;24474;48.906;8.808;2023-12-29T08:40:59;1.73;;;1.50;;
38725;SDS011;24474;48.906;8.808;2023-12-29T08:43:28;2.95;;;1.58;;
38725;SDS011;24474;48.906;8.808;2023-12-29T08:45:54;1.60;;;1.35;;
38725;SDS011;24474;48.906;8.808;2023-12-29T08:48:19;2.38;;;1.30;;
38725;SDS011;24474;48.906;8.808;2023-12-29T08:50:45;1.95;;;1.35;;
38725;SDS011;24474;48.906;8.808;2023-12-29T08:53:11;1.50;;;1.23;;
38725;SDS011;24474;48.906;8.808;2023-12-29T08:55:36;1.17;;;0.90;;
38725;SDS011;24474;48.906;8.808;2023-12-29T08:58:02;1.10;;;0.90;;
38725;SDS011;24474;48.906;8.808;2023-12-29T09:00:28;0.95;;;0.75;;
38725;SDS011;24474;48.906;8.808;2023-12-29T09:02:57;1.27;;;0.70;;
38725;SDS011;24474;48.906;8.808;2023-12-29T09:05:22;1.50;;;1.00;;
38725;SDS011;24474;48.906;8.808;2023-12-29T09:07:48;0.80;;;0.80;;
38725;SDS011;24474;48.906;8.808;2023-12-29T09:10:14;1.95;;;0.90;;
38725;SDS011;24474;48.906;8.808;2023-12-29T09:12:40;1.38;;;0.88;;
38725;SDS011;24474;48.906;8.808;2023-12-29T09:15:06;1.00;;;0.90;;
38725;SDS011;24474;48.906;8.808;2023-12-29T09:17:32;1.17;;;1.00;;
38725;SDS011;24474;48.906;8.808;2023-12-29T09:19:58;0.80;;;0.68;;
38725;SDS011;24474;48.906;8.808;2023-12-29T09:22:24;2.17;;;0.88;;
38725;SDS011;24474;48.906;8.808;2023-12-29T09:24:50;1.02;;;0.70;;
38725;SDS011;24474;48.906;8.808;2023-12-29T09:27:15;2.22;;;1.55;;
38725;SDS011;24474;48.906;8.808;2023-12-29T09:29:43;3.13;;;1.58;;
38725;SDS011;24474;48.906;8.808;2023-12-29T09:32:10;5.95;;;3.35;;
38725;SDS011;24474;48.906;8.808;2023-12-29T09:34:35;2.17;;;1.50;;
38725;SDS011;24474;48.906;8.808;2023-12-29T09:37:01;4.43;;;2.75;;
38725;SDS011;24474;48.906;8.808;2023-12-29T09:39:26;4.57;;;0.90;;
38725;SDS011;24474;48.906;8.808;2023-12-29T09:41:53;1.35;;;0.80;;
38725;SDS011;24474;48.906;8.808;2023-12-29T09:44:23;1.00;;;0.90;;
38725;SDS011;24474;48.906;8.808;2023-12-29T09:46:54;0.60;;;0.60;;
38725;SDS011;24474;48.906;8.808;2023-12-29T09:49:20;3.55;;;1.90;;
38725;SDS011;24474;48.906;8.808;2023-12-29T09:51:46;1.20;;;0.90;;
38725;SDS011;24474;48.906;8.808;2023-12-29T09:54:13;2.42;;;1.40;;
38725;SDS011;24474;48.906;8.808;2023-12-29T09:56:40;1.40;;;1.00;;
38725;SDS011;24474;48.906;8.808;2023-12-29T09:59:08;2.67;;;1.45;;
38725;SDS011;24474;48.906;8.808;2023-12-29T10:01:36;2.88;;;0.70;;
38725;SDS011;24474;48.906;8.808;2023-12-29T10:04:02;1.50;;;0.85;;
38725;SDS011;24474;48.906;8.808;2023-12-29T10:06:28;1.35;;;0.80;;
38725;SDS011;24474;48.906;8.808;2023-12-29T10:08:59;2.08;;;1.00;;
38725;SDS011;24474;48.906;8.808;2023-12-29T10:11:29;1.27;;;0.90;;
38725;SDS011;24474;48.906;8.808;2023-12-29T10:14:00;1.55;;;1.20;;
38725;SDS011;24474;48.906;8.808;2023-12-29T10:16:50;3.28;;;2.03;;
38725;SDS011;24474;48.906;8.808;2023-12-29T10:19:46;1.58;;;0.90;;
38725;SDS011;24474;48.906;8.808;2023-12-29T10:22:18;0.93;;;0.90;;
38725;SDS011;24474;48.906;8.808;2023-12-29T10:24:52;1.00;;;0.88;;
38725;SDS011;24474;48.906;8.808;2023-12-29T10:27:18;0.60;;;0.60;;
38725;SDS011;24474;48.906;8.808;2023-12-29T10:29:44;1.40;;;0.70;;
38725;SDS011;24474;48.906;8.808;2023-12-29T10:32:09;0.60;;;0.60;;
38725;SDS011;24474;48.906;8.808;2023-12-29T10:34:35;0.40;;;0.40;;
38725;SDS011;24474;48.906;8.808;2023-12-29T10:37:01;0.60;;;0.60;;
38725;SDS011;24474;48.906;8.808;2023-12-29T10:39:38;2.15;;;0.60;;
38725;SDS011;24474;48.906;8.808;2023-12-29T10:44:34;0.93;;;0.65;;
38725;SDS011;24474;48.906;8.808;2023-12-29T10:47:10;1.23;;;0.70;;
38725;SDS011;24474;48.906;8.808;2023-12-29T10:49:37;1.50;;;0.70;;
38725;SDS011;24474;48.906;8.808;2023-12-29T10:52:24;1.20;;;0.70;;
38725;SDS011;24474;48.906;8.808;2023-12-29T10:54:49;1.60;;;0.70;;
38725;SDS011;24474;48.906;8.808;2023-12-29T10:57:14;0.75;;;0.65;;
38725;SDS011;24474;48.906;8.808;2023-12-29T10:59:40;0.50;;;0.50;;
38725;SDS011;24474;48.906;8.808;2023-12-29T11:02:06;0.70;;;0.60;;
38725;SDS011;24474;48.906;8.808;2023-12-29T11:04:35;0.40;;;0.40;;
38725;SDS011;24474;48.906;8.808;2023-12-29T11:07:11;0.57;;;0.57;;
38725;SDS011;24474;48.906;8.808;2023-12-29T11:09:40;0.82;;;0.70;;
38725;SDS011;24474;48.906;8.808;2023-12-29T11:12:07;0.80;;;0.80;;
38725;SDS011;24474;48.906;8.808;2023-12-29T11:14:32;1.02;;;0.68;;
38725;SDS011;24474;48.906;8.808;2023-12-29T11:16:59;1.25;;;0.60;;
38725;SDS011;24474;48.906;8.808;2023-12-29T11:19:25;1.00;;;0.90;;
38725;SDS011;24474;48.906;8.808;2023-12-29T11:21:53;0.70;;;0.70;;
38725;SDS011;24474;48.906;8.808;2023-12-29T11:24:20;1.30;;;0.70;;
38725;SDS011;24474;48.906;8.808;2023-12-29T11:26:46;1.27;;;0.70;;
38725;SDS011;24474;48.906;8.808;2023-12-29T11:29:13;1.83;;;0.88;;
38725;SDS011;24474;48.906;8.808;2023-12-29T11:31:41;1.00;;;0.70;;
38725;SDS011;24474;48.906;8.808;2023-12-29T11:34:12;0.88;;;0.70;;
38725;SDS011;24474;48.906;8.808;2023-12-29T11:37:04;1.02;;;0.80;;
38725;SDS011;24474;48.906;8.808;2023-12-29T11:39:43;0.88;;;0.70;;
38725;SDS011;24474;48.906;8.808;2023-12-29T11:42:49;1.67;;;0.80;;
38725;SDS011;24474;48.906;8.808;2023-12-29T11:47:59;1.77;;;0.88;;
38725;SDS011;24474;48.906;8.808;2023-12-29T11:50:28;2.60;;;0.70;;
38725;SDS011;24474;48.906;8.808;2023-12-29T11:52:54;0.88;;;0.75;;
38725;SDS011;24474;48.906;8.808;2023-12-29T11:55:20;2.72;;;0.80;;
38725;SDS011;24474;48.906;8.808;2023-12-29T11:57:46;1.15;;;0.80;;
38725;SDS011;24474;48.906;8.808;2023-12-29T12:00:12;1.17;;;1.05;;
38725;SDS011;24474;48.906;8.808;2023-12-29T12:02:38;1.10;;;0.73;;
38725;SDS011;24474;48.906;8.808;2023-12-29T12:05:04;1.02;;;0.75;;
38725;SDS011;24474;48.906;8.808;2023-12-29T12:12:48;4.53;;;2.10;;
38725;SDS011;24474;48.906;8.808;2023-12-29T12:17:54;3.08;;;2.10;;
38725;SDS011;24474;48.906;8.808;2023-12-29T12:20:21;2.05;;;1.20;;
38725;SDS011;24474;48.906;8.808;2023-12-29T12:22:57;1.33;;;1.02;;
38725;SDS011;24474;48.906;8.808;2023-12-29T12:25:28;1.10;;;0.90;;
38725;SDS011;24474;48.906;8.808;2023-12-29T12:27:58;1.25;;;0.77;;
38725;SDS011;24474;48.906;8.808;2023-12-29T12:30:24;1.90;;;1.10;;
38725;SDS011;24474;48.906;8.808;2023-12-29T12:32:59;1.00;;;0.80;;
38725;SDS011;24474;48.906;8.808;2023-12-29T12:35:26;0.90;;;0.82;;
38725;SDS011;24474;48.906;8.808;2023-12-29T12:40:37;0.75;;;0.73;;
38725;SDS011;24474;48.906;8.808;2023-12-29T12:43:03;2.15;;;0.82;;
38725;SDS011;24474;48.906;8.808;2023-12-29T12:45:33;1.40;;;0.90;;
38725;SDS011;24474;48.906;8.808;2023-12-29T12:48:12;1.38;;;1.00;;
38725;SDS011;24474;48.906;8.808;2023-12-29T12:50:56;1.80;;;0.90;;
38725;SDS011;24474;48.906;8.808;2023-12-29T12:53:24;1.15;;;0.82;;
38725;SDS011;24474;48.906;8.808;2023-12-29T12:55:50;1.38;;;1.00;;
38725;SDS011;24474;48.906;8.808;2023-12-29T12:58:20;0.88;;;0.80;;
38725;SDS011;24474;48.906;8.808;2023-12-29T13:00:46;1.23;;;0.80;;
38725;SDS011;24474;48.906;8.808;2023-12-29T13:03:12;2.72;;;0.98;;
38725;SDS011;24474;48.906;8.808;2023-12-29T13:05:40;1.35;;;0.90;;
38725;SDS011;24474;48.906;8.808;2023-12-29T13:08:07;1.48;;;0.90;;
38725;SDS011;24474;48.906;8.808;2023-12-29T13:10:42;0.90;;;0.70;;
38725;SDS011;24474;48.906;8.808;2023-12-29T13:13:08;0.85;;;0.80;;
38725;SDS011;24474;48.906;8.808;2023-12-29T13:15:35;2.35;;;0.90;;
38725;SDS011;24474;48.906;8.808;2023-12-29T13:18:09;1.55;;;1.00;;
38725;SDS011;24474;48.906;8.808;2023-12-29T13:20:45;1.73;;;1.00;;
38725;SDS011;24474;48.906;8.808;2023-12-29T13:23:12;1.98;;;1.00;;
38725;SDS011;24474;48.906;8.808;2023-12-29T13:25:39;1.83;;;0.95;;
38725;SDS011;24474;48.906;8.808;2023-12-29T13:28:06;1.35;;;0.93;;
38725;SDS011;24474;48.906;8.808;2023-12-29T13:30:32;1.90;;;1.00;;
38725;SDS011;24474;48.906;8.808;2023-12-29T13:32:58;1.95;;;1.08;;
38725;SDS011;24474;48.906;8.808;2023-12-29T13:35:30;3.42;;;1.10;;
38725;SDS011;24474;48.906;8.808;2023-12-29T13:38:08;1.48;;;1.00;;
38725;SDS011;24474;48.906;8.808;2023-12-29T13:43:09;1.80;;;1.13;;
38725;SDS011;24474;48.906;8.808;2023-12-29T13:45:36;2.95;;;1.50;;
38725;SDS011;24474;48.906;8.808;2023-12-29T13:48:04;2.03;;;1.30;;
38725;SDS011;24474;48.906;8.808;2023-12-29T13:50:32;2.85;;;1.30;;
38725;SDS011;24474;48.906;8.808;2023-12-29T13:52:59;1.38;;;1.05;;
38725;SDS011;24474;48.906;8.808;2023-12-29T13:55:25;1.98;;;1.27;;
38725;SDS011;24474;48.906;8.808;2023-12-29T13:57:51;1.70;;;1.20;;
38725;SDS011;24474;48.906;8.808;2023-12-29T14:00:25;2.10;;;1.50;;
38725;SDS011;24474;48.906;8.808;2023-12-29T14:05:31;6.32;;;3.42;;
38725;SDS011;24474;48.906;8.808;2023-12-29T14:10:36;1.83;;;1.42;;
38725;SDS011;24474;48.906;8.808;2023-12-29T14:13:10;2.15;;;1.75;;
38725;SDS011;24474;48.906;8.808;2023-12-29T14:15:38;1.98;;;1.60;;
38725;SDS011;24474;48.906;8.808;2023-12-29T14:18:14;2.55;;;1.35;;
38725;SDS011;24474;48.906;8.808;2023-12-29T14:20:46;5.25;;;2.40;;
38725;SDS011;24474;48.906;8.808;2023-12-29T14:23:12;4.97;;;2.00;;
38725;SDS011;24474;48.906;8.808;2023-12-29T14:25:38;4.32;;;2.30;;
38725;SDS011;24474;48.906;8.808;2023-12-29T14:28:13;2.25;;;1.65;;
38725;SDS011;24474;48.906;8.808;2023-12-29T14:30:43;2.85;;;1.48;;
38725;SDS011;24474;48.906;8.808;2023-12-29T14:33:09;2.22;;;1.33;;
38725;SDS011;24474;48.906;8.808;2023-12-29T14:35:35;3.50;;;2.15;;
38725;SDS011;24474;48.906;8.808;2023-12-29T14:38:01;4.53;;;2.83;;
38725;SDS011;24474;48.906;8.808;2023-12-29T14:40:27;5.68;;;3.08;;
38725;SDS011;24474;48.906;8.808;2023-12-29T14:42:53;6.53;;;4.00;;
38725;SDS011;24474;48.906;8.808;2023-12-29T14:45:18;6.25;;;3.10;;
38725;SDS011;24474;48.906;8.808;2023-12-29T14:47:44;8.75;;;5.13;;
38725;SDS011;24474;48.906;8.808;2023-12-29T14:50:14;3.25;;;1.80;;
38725;SDS011;24474;48.906;8.808;2023-12-29T14:52:42;6.72;;;4.40;;
38725;SDS011;24474;48.906;8.808;2023-12-29T14:55:11;4.18;;;1.95;;
38725;SDS011;24474;48.906;8.808;2023-12-29T14:57:36;4.85;;;2.78;;
38725;SDS011;24474;48.906;8.808;2023-12-29T15:00:02;5.15;;;2.50;;
38725;SDS011;24474;48.906;8.808;2023-12-29T15:02:29;3.95;;;2.30;;
38725;SDS011;24474;48.906;8.808;2023-12-29T15:04:55;4.68;;;2.85;;
38725;SDS011;24474;48.906;8.808;2023-12-29T15:07:21;5.82;;;3.47;;
38725;SDS011;24474;48.906;8.808;2023-12-29T15:09:53;6.32;;;3.85;;
38725;SDS011;24474;48.906;8.808;2023-12-29T15:12:18;3.75;;;2.30;;
38725;SDS011;24474;48.906;8.808;2023-12-29T15:14:44;7.75;;;4.75;;
38725;SDS011;24474;48.906;8.808;2023-12-29T15:17:09;5.13;;;3.28;;